PWSweather.com
Personal Weather Stations
Station Observations
KTXPLANO60
Highlands Of Russell Park, Plano, TX 75025

Highlands Of Russell ParkPlano, TX 75025

Lat: 33.10431671, Lon: -96.75176239

Elevation: 761

Station Type: Davis Wireless VP2 Plus

http://www.planoweather.com

Latest ConditionsUpdated 7:00:11 PM CDT Sunday, Aug 28, 2016
Currently Today's Max Today's Min Today's Average
Temperature 87.0°F30.6°C 90.9°F32.7°C 72.4°F22.4°C 81.9°F27.7°C
Dew Point 68.9°F20.5°C 73.2°F22.9°C 68.0°F20.0°C 70.9°F21.6°C
Winds 5.8 mph E9.3 kmh E 10.1 mph SE16.3 kmh SE - 2.9 mph 4.7 kmh
Wind Gusts 7.0 mph11.3 kmh 15.0 mph24.1 kmh - -
Humidity 55% 87% 49% 71%
Pressure 29.90 in1012.5 mb 30.01 in1016.3 mb 29.90 in1012.5 mb -
Hour Temp Dew Point Humidity Winds Wind Gusts Pressure Precip Precip Rate Daily Precip Total
07:00 PM 87.0°F30.6°C 68.9°F20.5°C 55% 5.8 mph E9.3 kmh E 7.0 mph11.3 kmh 29.90 in1012.5 mb - 0.00 in0.0 mm 0.00 in0.0 mm
06:50 PM 87.4°F30.8°C 68.7°F20.4°C 54% 7.2 mph ESE11.6 kmh ESE 8.0 mph12.9 kmh 29.91 in1012.9 mb - 0.00 in0.0 mm 0.00 in0.0 mm
06:40 PM 87.7°F30.9°C 69.5°F20.8°C 55% 6.5 mph ESE10.5 kmh ESE 9.0 mph14.5 kmh 29.90 in1012.5 mb - 0.00 in0.0 mm 0.00 in0.0 mm
06:30 PM 87.9°F31.1°C 68.7°F20.4°C 53% 8.1 mph SE13.0 kmh SE 8.0 mph12.9 kmh 29.90 in1012.5 mb - 0.00 in0.0 mm 0.00 in0.0 mm
06:20 PM 88.1°F31.2°C 69.4°F20.8°C 54% 4.7 mph SSE7.6 kmh SSE 8.0 mph12.9 kmh 29.90 in1012.5 mb - 0.00 in0.0 mm 0.00 in0.0 mm
06:10 PM 88.3°F31.3°C 70.7°F21.5°C 56% 6.3 mph ESE10.1 kmh ESE 12.0 mph19.3 kmh 29.90 in1012.5 mb - 0.00 in0.0 mm 0.00 in0.0 mm
06:00 PM 88.7°F31.5°C 71.0°F21.7°C 56% 6.8 mph ESE10.9 kmh ESE 11.0 mph17.7 kmh 29.90 in1012.5 mb - 0.00 in0.0 mm 0.00 in0.0 mm
05:50 PM 89.0°F31.7°C 70.2°F21.2°C 54% 5.7 mph SE9.2 kmh SE 11.0 mph17.7 kmh 29.90 in1012.5 mb - 0.00 in0.0 mm 0.00 in0.0 mm
05:40 PM 89.6°F32.0°C 70.2°F21.2°C 53% 8.3 mph ESE13.4 kmh ESE 14.0 mph22.5 kmh 29.90 in1012.5 mb - 0.00 in0.0 mm 0.00 in0.0 mm
05:30 PM 89.5°F31.9°C 70.1°F21.2°C 53% 4.6 mph SSE7.4 kmh SSE 6.0 mph9.7 kmh 29.90 in1012.5 mb - 0.00 in0.0 mm 0.00 in0.0 mm
05:20 PM 89.9°F32.2°C 69.9°F21.1°C 52% 5.6 mph SE9.0 kmh SE 9.0 mph14.5 kmh 29.90 in1012.5 mb - 0.00 in0.0 mm 0.00 in0.0 mm
05:10 PM 89.3°F31.8°C 68.8°F20.4°C 51% 6.1 mph E9.8 kmh E 8.0 mph12.9 kmh 29.90 in1012.5 mb - 0.00 in0.0 mm 0.00 in0.0 mm
05:00 PM 90.2°F32.3°C 68.4°F20.2°C 49% 6.5 mph E10.5 kmh E 7.0 mph11.3 kmh 29.91 in1012.9 mb - 0.00 in0.0 mm 0.00 in0.0 mm
04:50 PM 89.8°F32.1°C 69.3°F20.7°C 51% 6.5 mph SE10.5 kmh SE 13.0 mph20.9 kmh 29.91 in1012.9 mb - 0.00 in0.0 mm 0.00 in0.0 mm
04:40 PM 90.5°F32.5°C 69.3°F20.7°C 50% 7.0 mph E11.3 kmh E 8.0 mph12.9 kmh 29.91 in1012.9 mb - 0.00 in0.0 mm 0.00 in0.0 mm
04:30 PM 90.6°F32.6°C 69.4°F20.8°C 50% 6.3 mph ESE10.1 kmh ESE 9.0 mph14.5 kmh 29.91 in1012.9 mb - 0.00 in0.0 mm 0.00 in0.0 mm
04:20 PM 90.1°F32.3°C 69.0°F20.6°C 50% 3.7 mph SE6.0 kmh SE 12.0 mph19.3 kmh 29.91 in1012.9 mb - 0.00 in0.0 mm 0.00 in0.0 mm
04:10 PM 90.4°F32.4°C 68.6°F20.3°C 49% 8.7 mph SE14.0 kmh SE 12.0 mph19.3 kmh 29.91 in1012.9 mb - 0.00 in0.0 mm 0.00 in0.0 mm
04:00 PM 89.5°F31.9°C 69.0°F20.6°C 51% 6.2 mph E10.0 kmh E 8.0 mph12.9 kmh 29.91 in1012.9 mb - 0.00 in0.0 mm 0.00 in0.0 mm
03:50 PM 90.0°F32.2°C 70.0°F21.1°C 52% 5.3 mph SE8.5 kmh SE 7.0 mph11.3 kmh 29.92 in1013.2 mb - 0.00 in0.0 mm 0.00 in0.0 mm
03:40 PM 90.1°F32.3°C 71.7°F22.1°C 55% 6.5 mph SSE10.5 kmh SSE 13.0 mph20.9 kmh 29.92 in1013.2 mb - 0.00 in0.0 mm 0.00 in0.0 mm
03:30 PM 89.3°F31.8°C 70.5°F21.4°C 54% 5.6 mph SE9.0 kmh SE 9.0 mph14.5 kmh 29.92 in1013.2 mb - 0.00 in0.0 mm 0.00 in0.0 mm
03:20 PM 90.9°F32.7°C 71.4°F21.9°C 53% 2.3 mph E3.7 kmh E 8.0 mph12.9 kmh 29.93 in1013.5 mb - 0.00 in0.0 mm 0.00 in0.0 mm
03:10 PM 90.0°F32.2°C 70.6°F21.4°C 53% 2.0 mph ESE3.2 kmh ESE 2.0 mph3.2 kmh 29.93 in1013.5 mb - 0.00 in0.0 mm 0.00 in0.0 mm
03:00 PM 90.1°F32.3°C 70.7°F21.5°C 53% 3.7 mph ESE6.0 kmh ESE 8.0 mph12.9 kmh 29.94 in1013.9 mb - 0.00 in0.0 mm 0.00 in0.0 mm
02:50 PM 90.4°F32.4°C 70.9°F21.6°C 53% 3.8 mph ESE6.1 kmh ESE 9.0 mph14.5 kmh 29.95 in1014.2 mb - 0.00 in0.0 mm 0.00 in0.0 mm
02:40 PM 89.7°F32.1°C 71.4°F21.9°C 55% 5.4 mph SSE8.7 kmh SSE 7.0 mph11.3 kmh 29.95 in1014.2 mb - 0.00 in0.0 mm 0.00 in0.0 mm
02:30 PM 89.7°F32.1°C 70.3°F21.3°C 53% 10.1 mph SE16.3 kmh SE 14.0 mph22.5 kmh 29.96 in1014.6 mb - 0.00 in0.0 mm 0.00 in0.0 mm
02:20 PM 89.3°F31.8°C 71.0°F21.7°C 55% 4.8 mph SE7.7 kmh SE 8.0 mph12.9 kmh 29.96 in1014.6 mb - 0.00 in0.0 mm 0.00 in0.0 mm
02:10 PM 88.8°F31.6°C 71.1°F21.7°C 56% 6.3 mph ESE10.1 kmh ESE 11.0 mph17.7 kmh 29.96 in1014.6 mb - 0.00 in0.0 mm 0.00 in0.0 mm
02:00 PM 88.6°F31.4°C 71.4°F21.9°C 57% 4.0 mph SE6.4 kmh SE 8.0 mph12.9 kmh 29.97 in1014.9 mb - 0.00 in0.0 mm 0.00 in0.0 mm
01:50 PM 88.8°F31.6°C 71.6°F22.0°C 57% 4.5 mph SE7.2 kmh SE 9.0 mph14.5 kmh 29.98 in1015.2 mb - 0.00 in0.0 mm 0.00 in0.0 mm
01:40 PM 89.3°F31.8°C 72.0°F22.2°C 57% 5.2 mph SE8.4 kmh SE 11.0 mph17.7 kmh 29.98 in1015.2 mb - 0.00 in0.0 mm 0.00 in0.0 mm
01:30 PM 88.8°F31.6°C 72.6°F22.6°C 59% 4.8 mph SE7.7 kmh SE 8.0 mph12.9 kmh 29.98 in1015.2 mb - 0.00 in0.0 mm 0.00 in0.0 mm
01:20 PM 89.0°F31.7°C 72.8°F22.7°C 59% 4.3 mph SE6.9 kmh SE 7.0 mph11.3 kmh 29.99 in1015.6 mb - 0.00 in0.0 mm 0.00 in0.0 mm
01:10 PM 88.4°F31.3°C 71.7°F22.1°C 58% 9.1 mph SE14.6 kmh SE 15.0 mph24.1 kmh 29.99 in1015.6 mb - 0.00 in0.0 mm 0.00 in0.0 mm
01:00 PM 87.3°F30.7°C 71.3°F21.8°C 59% 3.5 mph SE5.6 kmh SE 6.0 mph9.7 kmh 30.00 in1015.9 mb - 0.00 in0.0 mm 0.00 in0.0 mm
12:50 PM 86.9°F30.5°C 70.3°F21.3°C 58% 4.1 mph SE6.6 kmh SE 12.0 mph19.3 kmh 30.00 in1015.9 mb - 0.00 in0.0 mm 0.00 in0.0 mm
12:40 PM 86.8°F30.4°C 71.2°F21.8°C 60% 5.7 mph SE9.2 kmh SE 9.0 mph14.5 kmh 30.00 in1015.9 mb - 0.00 in0.0 mm 0.00 in0.0 mm
12:30 PM 86.4°F30.2°C 71.4°F21.9°C 61% 5.3 mph SE8.5 kmh SE 8.0 mph12.9 kmh 30.00 in1015.9 mb - 0.00 in0.0 mm 0.00 in0.0 mm
12:20 PM 85.7°F29.8°C 71.2°F21.8°C 62% 1.8 mph SE2.9 kmh SE 7.0 mph11.3 kmh 30.00 in1015.9 mb - 0.00 in0.0 mm 0.00 in0.0 mm
12:10 PM 85.4°F29.7°C 71.4°F21.9°C 63% 3.7 mph SSE6.0 kmh SSE 7.0 mph11.3 kmh 30.00 in1015.9 mb - 0.00 in0.0 mm 0.00 in0.0 mm
12:00 PM 84.9°F29.4°C 70.9°F21.6°C 63% 5.2 mph S8.4 kmh S 9.0 mph14.5 kmh 30.01 in1016.3 mb - 0.00 in0.0 mm 0.00 in0.0 mm
11:50 AM 84.8°F29.3°C 72.2°F22.3°C 66% 3.1 mph S5.0 kmh S 6.0 mph9.7 kmh 30.01 in1016.3 mb - 0.00 in0.0 mm 0.00 in0.0 mm
11:40 AM 84.6°F29.2°C 72.0°F22.2°C 66% 3.0 mph S4.8 kmh S 5.0 mph8.0 kmh 30.01 in1016.3 mb - 0.00 in0.0 mm 0.00 in0.0 mm
11:30 AM 84.3°F29.1°C 71.7°F22.1°C 66% 3.8 mph S6.1 kmh S 4.0 mph6.4 kmh 30.01 in1016.3 mb - 0.00 in0.0 mm 0.00 in0.0 mm
11:20 AM 84.0°F28.9°C 72.8°F22.7°C 69% 0.9 mph S1.4 kmh S 4.0 mph6.4 kmh 30.01 in1016.3 mb - 0.00 in0.0 mm 0.00 in0.0 mm
11:10 AM 83.2°F28.4°C 73.2°F22.9°C 72% 1.9 mph S3.1 kmh S 4.0 mph6.4 kmh 30.01 in1016.3 mb - 0.00 in0.0 mm 0.00 in0.0 mm
11:00 AM 83.0°F28.3°C 72.2°F22.3°C 70% 1.7 mph S2.7 kmh S 4.0 mph6.4 kmh 30.01 in1016.3 mb - 0.00 in0.0 mm 0.00 in0.0 mm
10:50 AM 82.9°F28.3°C 72.9°F22.7°C 72% 0.3 mph S0.5 kmh S 1.0 mph1.6 kmh 30.01 in1016.3 mb - 0.00 in0.0 mm 0.00 in0.0 mm
10:40 AM 83.3°F28.5°C 72.5°F22.5°C 70% 0.9 mph S1.4 kmh S 2.0 mph3.2 kmh 30.01 in1016.3 mb - 0.00 in0.0 mm 0.00 in0.0 mm
10:30 AM 83.3°F28.5°C 72.9°F22.7°C 71% 3.2 mph S5.1 kmh S 3.0 mph4.8 kmh 30.01 in1016.3 mb - 0.00 in0.0 mm 0.00 in0.0 mm
10:20 AM 82.8°F28.2°C 72.9°F22.7°C 72% 2.6 mph S4.2 kmh S 5.0 mph8.0 kmh 30.01 in1016.3 mb - 0.00 in0.0 mm 0.00 in0.0 mm
10:10 AM 82.2°F27.9°C 72.3°F22.4°C 72% Calm Calm -- 30.01 in1016.3 mb - 0.00 in0.0 mm 0.00 in0.0 mm
10:00 AM 81.9°F27.7°C 72.4°F22.4°C 73% 1.6 mph S2.6 kmh S 3.0 mph4.8 kmh 30.01 in1016.3 mb - 0.00 in0.0 mm 0.00 in0.0 mm
09:50 AM 82.0°F27.8°C 72.5°F22.5°C 73% 0.9 mph S1.4 kmh S 3.0 mph4.8 kmh 30.01 in1016.3 mb - 0.00 in0.0 mm 0.00 in0.0 mm
09:40 AM 82.5°F28.1°C 72.6°F22.6°C 72% 0.2 mph S0.3 kmh S 3.0 mph4.8 kmh 30.01 in1016.3 mb - 0.00 in0.0 mm 0.00 in0.0 mm
09:30 AM 82.4°F28.0°C 72.5°F22.5°C 72% 0.1 mph S0.2 kmh S 1.0 mph1.6 kmh 30.00 in1015.9 mb - 0.00 in0.0 mm 0.00 in0.0 mm
09:20 AM 81.4°F27.4°C 72.3°F22.4°C 74% Calm Calm -- 30.00 in1015.9 mb - 0.00 in0.0 mm 0.00 in0.0 mm
09:10 AM 81.7°F27.6°C 71.8°F22.1°C 72% Calm Calm -- 30.00 in1015.9 mb - 0.00 in0.0 mm 0.00 in0.0 mm
09:00 AM 81.4°F27.4°C 72.7°F22.6°C 75% Calm Calm -- 30.00 in1015.9 mb - 0.00 in0.0 mm 0.00 in0.0 mm
08:50 AM 80.9°F27.2°C 72.6°F22.6°C 76% Calm Calm -- 30.00 in1015.9 mb - 0.00 in0.0 mm 0.00 in0.0 mm
08:40 AM 79.8°F26.6°C 72.7°F22.6°C 79% Calm Calm -- 30.00 in1015.9 mb - 0.00 in0.0 mm 0.00 in0.0 mm
08:30 AM 78.5°F25.8°C 72.2°F22.3°C 81% Calm Calm -- 30.00 in1015.9 mb - 0.00 in0.0 mm 0.00 in0.0 mm
08:20 AM 77.4°F25.2°C 71.8°F22.1°C 83% Calm Calm -- 30.00 in1015.9 mb - 0.00 in0.0 mm 0.00 in0.0 mm
08:10 AM 76.1°F24.5°C 71.2°F21.8°C 85% Calm Calm -- 30.00 in1015.9 mb - 0.00 in0.0 mm 0.00 in0.0 mm
08:00 AM 75.1°F23.9°C 70.6°F21.4°C 86% Calm Calm -- 29.99 in1015.6 mb - 0.00 in0.0 mm 0.00 in0.0 mm
07:50 AM 74.4°F23.6°C 70.0°F21.1°C 86% Calm Calm -- 29.99 in1015.6 mb - 0.00 in0.0 mm 0.00 in0.0 mm
07:40 AM 73.4°F23.0°C 68.6°F20.3°C 85% Calm Calm -- 29.98 in1015.2 mb - 0.00 in0.0 mm 0.00 in0.0 mm
07:30 AM 72.6°F22.6°C 68.2°F20.1°C 86% Calm Calm -- 29.98 in1015.2 mb - 0.00 in0.0 mm 0.00 in0.0 mm
07:20 AM 72.5°F22.5°C 68.1°F20.1°C 86% Calm Calm -- 29.98 in1015.2 mb - 0.00 in0.0 mm 0.00 in0.0 mm
07:10 AM 72.4°F22.4°C 68.0°F20.0°C 86% Calm Calm -- 29.98 in1015.2 mb - 0.00 in0.0 mm 0.00 in0.0 mm
07:00 AM 72.4°F22.4°C 68.3°F20.2°C 87% Calm Calm -- 29.98 in1015.2 mb - 0.00 in0.0 mm 0.00 in0.0 mm
06:50 AM 72.5°F22.5°C 68.4°F20.2°C 87% Calm Calm -- 29.97 in1014.9 mb - 0.00 in0.0 mm 0.00 in0.0 mm
06:40 AM 72.8°F22.7°C 68.3°F20.2°C 86% Calm Calm -- 29.97 in1014.9 mb - 0.00 in0.0 mm 0.00 in0.0 mm
06:30 AM 73.0°F22.8°C 68.6°F20.3°C 86% Calm Calm -- 29.97 in1014.9 mb - 0.00 in0.0 mm 0.00 in0.0 mm
06:20 AM 73.2°F22.9°C 68.8°F20.4°C 86% Calm Calm -- 29.97 in1014.9 mb - 0.00 in0.0 mm 0.00 in0.0 mm
06:10 AM 73.4°F23.0°C 69.0°F20.6°C 86% Calm Calm -- 29.97 in1014.9 mb - 0.00 in0.0 mm 0.00 in0.0 mm
06:00 AM 73.5°F23.1°C 69.1°F20.6°C 86% Calm Calm -- 29.96 in1014.6 mb - 0.00 in0.0 mm 0.00 in0.0 mm
05:50 AM 73.7°F23.2°C 69.2°F20.7°C 86% 0.1 mph S0.2 kmh S -- 29.96 in1014.6 mb - 0.00 in0.0 mm 0.00 in0.0 mm
05:40 AM 73.9°F23.3°C 69.4°F20.8°C 86% Calm Calm -- 29.96 in1014.6 mb - 0.00 in0.0 mm 0.00 in0.0 mm
05:30 AM 74.0°F23.3°C 69.2°F20.7°C 85% Calm Calm -- 29.95 in1014.2 mb - 0.00 in0.0 mm 0.00 in0.0 mm
05:20 AM 74.2°F23.4°C 69.4°F20.8°C 85% Calm Calm -- 29.95 in1014.2 mb - 0.00 in0.0 mm 0.00 in0.0 mm
05:10 AM 74.4°F23.6°C 69.6°F20.9°C 85% Calm Calm -- 29.95 in1014.2 mb - 0.00 in0.0 mm 0.00 in0.0 mm
05:00 AM 74.6°F23.7°C 69.8°F21.0°C 85% Calm Calm 1.0 mph1.6 kmh 29.96 in1014.6 mb - 0.00 in0.0 mm 0.00 in0.0 mm
04:50 AM 74.7°F23.7°C 69.5°F20.8°C 84% 0.3 mph S0.5 kmh S 2.0 mph3.2 kmh 29.95 in1014.2 mb - 0.00 in0.0 mm 0.00 in0.0 mm
04:40 AM 75.0°F23.9°C 69.8°F21.0°C 84% Calm Calm 2.0 mph3.2 kmh 29.95 in1014.2 mb - 0.00 in0.0 mm 0.00 in0.0 mm
04:30 AM 75.2°F24.0°C 70.0°F21.1°C 84% 0.7 mph S1.1 kmh S 4.0 mph6.4 kmh 29.95 in1014.2 mb - 0.00 in0.0 mm 0.00 in0.0 mm
04:20 AM 75.4°F24.1°C 70.3°F21.3°C 84% Calm Calm -- 29.95 in1014.2 mb - 0.00 in0.0 mm 0.00 in0.0 mm
04:10 AM 75.6°F24.2°C 70.1°F21.2°C 83% 0.1 mph S0.2 kmh S -- 29.94 in1013.9 mb - 0.00 in0.0 mm 0.00 in0.0 mm
04:00 AM 75.8°F24.3°C 70.3°F21.3°C 83% 2.0 mph SSW3.2 kmh SSW 6.0 mph9.7 kmh 29.94 in1013.9 mb - 0.00 in0.0 mm 0.00 in0.0 mm
03:50 AM 76.0°F24.4°C 70.5°F21.4°C 83% 2.0 mph S3.2 kmh S 3.0 mph4.8 kmh 29.95 in1014.2 mb - 0.00 in0.0 mm 0.00 in0.0 mm
03:40 AM 76.2°F24.6°C 70.7°F21.5°C 83% 2.7 mph S4.3 kmh S 5.0 mph8.0 kmh 29.95 in1014.2 mb - 0.00 in0.0 mm 0.00 in0.0 mm
03:30 AM 76.4°F24.7°C 70.9°F21.6°C 83% 0.9 mph S1.4 kmh S 4.0 mph6.4 kmh 29.95 in1014.2 mb - 0.00 in0.0 mm 0.00 in0.0 mm
03:20 AM 76.5°F24.7°C 70.6°F21.4°C 82% 2.7 mph S4.3 kmh S 6.0 mph9.7 kmh 29.95 in1014.2 mb - 0.00 in0.0 mm 0.00 in0.0 mm
03:10 AM 76.7°F24.8°C 71.1°F21.7°C 83% 4.3 mph S6.9 kmh S 7.0 mph11.3 kmh 29.96 in1014.6 mb - 0.00 in0.0 mm 0.00 in0.0 mm
03:00 AM 76.9°F24.9°C 71.0°F21.7°C 82% 3.1 mph S5.0 kmh S 5.0 mph8.0 kmh 29.95 in1014.2 mb - 0.00 in0.0 mm 0.00 in0.0 mm
02:50 AM 77.1°F25.1°C 71.2°F21.8°C 82% 5.2 mph S8.4 kmh S 8.0 mph12.9 kmh 29.95 in1014.2 mb - 0.00 in0.0 mm 0.00 in0.0 mm
02:40 AM 77.2°F25.1°C 71.6°F22.0°C 83% 1.4 mph S2.3 kmh S 6.0 mph9.7 kmh 29.95 in1014.2 mb - 0.00 in0.0 mm 0.00 in0.0 mm
02:30 AM 77.3°F25.2°C 71.7°F22.1°C 83% 4.2 mph S6.8 kmh S 7.0 mph11.3 kmh 29.96 in1014.6 mb - 0.00 in0.0 mm 0.00 in0.0 mm
02:20 AM 77.5°F25.3°C 71.9°F22.2°C 83% 4.2 mph S6.8 kmh S 7.0 mph11.3 kmh 29.96 in1014.6 mb - 0.00 in0.0 mm 0.00 in0.0 mm
02:10 AM 77.8°F25.4°C 72.2°F22.3°C 83% 0.9 mph SSE1.4 kmh SSE 1.0 mph1.6 kmh 29.96 in1014.6 mb - 0.00 in0.0 mm 0.00 in0.0 mm
02:00 AM 78.1°F25.6°C 72.1°F22.3°C 82% 3.1 mph SSE5.0 kmh SSE 5.0 mph8.0 kmh 29.95 in1014.2 mb - 0.00 in0.0 mm 0.00 in0.0 mm
01:50 AM 78.3°F25.7°C 72.0°F22.2°C 81% 2.3 mph SSE3.7 kmh SSE 7.0 mph11.3 kmh 29.95 in1014.2 mb - 0.00 in0.0 mm 0.00 in0.0 mm
01:40 AM 78.4°F25.8°C 72.1°F22.3°C 81% 1.8 mph S2.9 kmh S 5.0 mph8.0 kmh 29.95 in1014.2 mb - 0.00 in0.0 mm 0.00 in0.0 mm
01:30 AM 78.5°F25.8°C 72.2°F22.3°C 81% 4.6 mph S7.4 kmh S 8.0 mph12.9 kmh 29.96 in1014.6 mb - 0.00 in0.0 mm 0.00 in0.0 mm
01:20 AM 78.6°F25.9°C 72.3°F22.4°C 81% 4.1 mph S6.6 kmh S 8.0 mph12.9 kmh 29.95 in1014.2 mb - 0.00 in0.0 mm 0.00 in0.0 mm
01:10 AM 78.7°F25.9°C 72.4°F22.4°C 81% 0.9 mph SE1.4 kmh SE 4.0 mph6.4 kmh 29.96 in1014.6 mb - 0.00 in0.0 mm 0.00 in0.0 mm
01:00 AM 78.7°F25.9°C 72.4°F22.4°C 81% 3.8 mph SSE6.1 kmh SSE 7.0 mph11.3 kmh 29.95 in1014.2 mb - 0.00 in0.0 mm 0.00 in0.0 mm
12:50 AM 78.7°F25.9°C 72.4°F22.4°C 81% 3.5 mph SE5.6 kmh SE 6.0 mph9.7 kmh 29.95 in1014.2 mb - 0.00 in0.0 mm 0.00 in0.0 mm
12:40 AM 78.8°F26.0°C 72.5°F22.5°C 81% 4.1 mph SE6.6 kmh SE 9.0 mph14.5 kmh 29.95 in1014.2 mb - 0.00 in0.0 mm 0.00 in0.0 mm
12:30 AM 79.0°F26.1°C 72.3°F22.4°C 80% 0.1 mph SE0.2 kmh SE -- 29.95 in1014.2 mb - 0.00 in0.0 mm 0.00 in0.0 mm
12:20 AM 79.3°F26.3°C 72.6°F22.6°C 80% 1.0 mph SE1.6 kmh SE 2.0 mph3.2 kmh 29.95 in1014.2 mb - 0.00 in0.0 mm 0.00 in0.0 mm
12:10 AM 79.6°F26.4°C 72.6°F22.6°C 79% 0.5 mph SE0.8 kmh SE 4.0 mph6.4 kmh 29.94 in1013.9 mb - 0.00 in0.0 mm 0.00 in0.0 mm
12:00 AM 80.0°F26.7°C 72.5°F22.5°C 78% 1.4 mph SE2.3 kmh SE 1.0 mph1.6 kmh 29.94 in1013.9 mb - 0.00 in0.0 mm 0.00 in0.0 mm